Time;durP1;ratioP1;P1;durP2;ratioP2;P2;SDS_P1;SDS_P2;PMS_P1;PMS_P2;Temp;Humidity;BMP_temperature;BMP_pressure;BME280_temperature;BME280_humidity;BME280_pressure;Samples;Min_cycle;Max_cycle;Signal;HPM_P1;HPM_P2
2023/08/15 00:01:38;;;;;;;14.45;11.10;;;18.10;99.90;;;;;;5072769;28;20031;-77
2023/08/15 00:04:04;;;;;;;11.15;9.80;;;18.00;99.90;;;;;;5071635;28;20107;-80
2023/08/15 00:06:30;;;;;;;13.88;10.07;;;18.00;99.90;;;;;;5071453;28;20016;-80
2023/08/15 00:08:55;;;;;;;11.32;9.63;;;18.00;99.90;;;;;;5071589;28;20029;-77
2023/08/15 00:11:22;;;;;;;12.45;10.80;;;17.80;99.90;;;;;;5077794;28;20032;-78
2023/08/15 00:13:47;;;;;;;13.50;10.95;;;17.80;99.90;;;;;;5070748;28;20070;-79
2023/08/15 00:16:14;;;;;;;12.38;10.43;;;17.80;99.90;;;;;;5071201;28;20020;-77
2023/08/15 00:18:39;;;;;;;11.43;10.32;;;17.80;99.90;;;;;;5071388;28;20059;-79
2023/08/15 00:21:05;;;;;;;13.82;10.52;;;17.80;99.90;;;;;;5082300;28;20013;-77
2023/08/15 00:23:31;;;;;;;14.07;11.10;;;17.70;99.90;;;;;;5072655;28;20496;-78
2023/08/15 00:25:56;;;;;;;13.57;11.30;;;17.70;99.90;;;;;;5072360;28;20035;-79
2023/08/15 00:28:22;;;;;;;15.60;11.77;;;17.70;99.90;;;;;;5071436;28;20024;-77
2023/08/15 00:30:47;;;;;;;13.98;10.80;;;17.70;99.90;;;;;;5072386;28;20071;-79
2023/08/15 00:33:13;;;;;;;12.75;10.95;;;17.60;99.90;;;;;;5071227;28;20490;-79
2023/08/15 00:35:39;;;;;;;12.13;10.80;;;17.60;99.90;;;;;;5078839;28;20040;-79
2023/08/15 00:38:04;;;;;;;14.52;12.45;;;17.60;99.90;;;;;;5072486;28;20021;-77
2023/08/15 00:40:30;;;;;;;15.80;12.43;;;17.60;99.90;;;;;;5075854;28;20028;-80
2023/08/15 00:42:55;;;;;;;16.17;12.65;;;17.60;99.90;;;;;;5080502;28;20082;-77
2023/08/15 00:45:21;;;;;;;14.77;13.05;;;17.70;99.90;;;;;;5071026;28;20013;-77
2023/08/15 00:47:47;;;;;;;15.20;12.95;;;17.60;99.90;;;;;;5072451;28;20025;-77
2023/08/15 00:50:13;;;;;;;14.00;11.55;;;17.60;99.90;;;;;;5070816;28;20016;-77
2023/08/15 00:52:39;;;;;;;14.35;12.05;;;17.60;99.90;;;;;;5077451;28;20035;-77
2023/08/15 00:55:07;;;;;;;15.50;13.27;;;17.60;99.90;;;;;;5071889;28;20035;-78
2023/08/15 00:57:33;;;;;;;14.80;12.02;;;17.50;99.90;;;;;;5072424;28;20127;-78
2023/08/15 00:59:58;;;;;;;12.52;11.00;;;17.50;99.90;;;;;;5077881;28;20048;-79
2023/08/15 01:02:24;;;;;;;12.23;10.85;;;17.50;99.90;;;;;;5071910;28;20035;-78
2023/08/15 01:04:50;;;;;;;10.95;9.95;;;17.40;99.90;;;;;;5070611;28;20047;-80
2023/08/15 01:07:17;;;;;;;12.48;9.80;;;17.40;99.90;;;;;;5072869;28;20023;-78
2023/08/15 01:09:44;;;;;;;8.43;6.72;;;17.30;99.90;;;;;;5072179;28;20111;-80
2023/08/15 01:12:35;;;;;;;8.45;7.53;;;17.30;99.90;;;;;;5072248;28;20033;-80
2023/08/15 01:15:12;;;;;;;10.98;9.82;;;17.20;99.90;;;;;;5059488;28;20590;-80
2023/08/15 01:17:55;;;;;;;10.02;8.85;;;17.20;99.90;;;;;;5070794;28;20107;-80
2023/08/15 01:20:27;;;;;;;9.93;8.20;;;17.20;99.90;;;;;;5072401;28;20016;-79
2023/08/15 01:22:55;;;;;;;12.88;7.72;;;17.10;99.90;;;;;;5071839;28;20047;-80
2023/08/15 01:25:21;;;;;;;11.55;10.25;;;17.10;99.90;;;;;;5071988;28;20747;-78
2023/08/15 01:27:46;;;;;;;17.08;12.05;;;17.10;99.90;;;;;;5075811;28;20021;-78
2023/08/15 01:30:14;;;;;;;12.93;11.25;;;17.10;99.90;;;;;;5081393;28;20074;-78
2023/08/15 01:32:51;;;;;;;13.35;11.93;;;17.10;99.90;;;;;;5074195;28;20581;-80
2023/08/15 01:35:24;;;;;;;14.52;13.02;;;17.10;99.90;;;;;;5085182;28;20024;-80
2023/08/15 01:38:01;;;;;;;15.20;12.55;;;17.10;99.90;;;;;;5081133;28;20065;-78
2023/08/15 01:40:29;;;;;;;14.80;13.18;;;17.10;99.90;;;;;;5075706;28;20027;-80
2023/08/15 01:42:58;;;;;;;14.60;13.07;;;17.10;99.90;;;;;;5073966;28;20071;-79
2023/08/15 01:45:24;;;;;;;16.15;13.20;;;17.10;99.90;;;;;;5074161;28;20070;-78
2023/08/15 01:47:51;;;;;;;13.95;12.50;;;17.10;99.90;;;;;;5086411;28;20024;-78
2023/08/15 01:50:17;;;;;;;15.07;12.57;;;17.00;99.90;;;;;;5075366;28;20043;-78
2023/08/15 01:52:43;;;;;;;14.00;12.50;;;17.00;99.90;;;;;;5073867;28;20485;-80
2023/08/15 01:55:09;;;;;;;14.00;11.77;;;17.00;99.90;;;;;;5075374;28;20028;-80
2023/08/15 01:57:34;;;;;;;12.15;10.98;;;17.00;99.90;;;;;;5073250;28;20012;-80
2023/08/15 02:00:00;;;;;;;10.90;9.80;;;17.00;99.90;;;;;;5074871;28;20104;-79
2023/08/15 02:02:26;;;;;;;11.07;9.98;;;16.90;99.90;;;;;;5086863;28;20044;-78
2023/08/15 02:04:51;;;;;;;10.35;9.38;;;16.80;99.90;;;;;;5076323;28;20020;-78
2023/08/15 02:07:17;;;;;;;12.32;8.98;;;16.80;99.90;;;;;;5077195;28;20023;-80
2023/08/15 02:09:42;;;;;;;9.40;8.45;;;16.80;99.90;;;;;;5076398;28;20016;-79
2023/08/15 02:12:08;;;;;;;9.35;8.45;;;16.80;99.90;;;;;;5073641;28;20057;-79
2023/08/15 02:14:34;;;;;;;12.43;11.05;;;16.70;99.90;;;;;;5074296;28;20076;-80
2023/08/15 02:16:59;;;;;;;15.60;13.27;;;16.70;99.90;;;;;;5082726;28;20470;-80
2023/08/15 02:19:25;;;;;;;13.80;11.63;;;16.70;99.90;;;;;;5075156;28;20021;-80
2023/08/15 02:21:51;;;;;;;11.48;10.20;;;16.70;99.90;;;;;;5074861;28;20048;-77
2023/08/15 02:24:16;;;;;;;13.90;11.00;;;16.70;99.90;;;;;;5074337;28;20025;-80
2023/08/15 02:26:42;;;;;;;12.50;11.20;;;16.70;99.90;;;;;;5075502;28;20067;-79
2023/08/15 02:29:08;;;;;;;12.55;10.70;;;16.70;99.90;;;;;;5073276;28;20082;-77
2023/08/15 02:31:33;;;;;;;12.82;11.38;;;16.70;99.90;;;;;;5074462;28;20107;-77
2023/08/15 02:33:59;;;;;;;18.75;12.70;;;16.60;99.90;;;;;;5073337;28;20109;-78
2023/08/15 02:36:25;;;;;;;13.43;10.90;;;16.60;99.90;;;;;;5074136;28;20476;-80
2023/08/15 02:38:50;;;;;;;13.90;12.25;;;16.60;99.90;;;;;;5073140;28;20061;-77
2023/08/15 02:41:16;;;;;;;11.13;10.02;;;16.50;99.90;;;;;;5074305;28;20028;-78
2023/08/15 02:43:42;;;;;;;12.85;11.35;;;16.50;99.90;;;;;;5074433;28;20039;-77
2023/08/15 02:46:07;;;;;;;13.65;11.02;;;16.50;99.90;;;;;;5074330;28;20103;-79
2023/08/15 02:48:33;;;;;;;12.68;11.45;;;16.50;99.90;;;;;;5084748;28;20074;-78
2023/08/15 02:50:58;;;;;;;13.30;11.95;;;16.50;99.90;;;;;;5074173;28;20036;-78
2023/08/15 02:53:24;;;;;;;12.60;10.32;;;16.50;99.90;;;;;;5079270;28;20020;-80
2023/08/15 02:55:53;;;;;;;11.98;10.27;;;16.50;99.90;;;;;;5074187;28;20075;-80
2023/08/15 02:58:19;;;;;;;14.93;10.93;;;16.50;99.90;;;;;;5073596;28;20028;-79
2023/08/15 03:00:44;;;;;;;14.20;11.23;;;16.50;99.90;;;;;;5072524;28;20031;-78
2023/08/15 03:03:10;;;;;;;13.63;12.20;;;16.50;99.90;;;;;;5079105;28;20027;-78
2023/08/15 03:05:39;;;;;;;16.25;11.18;;;16.40;99.90;;;;;;5073844;28;20074;-79
2023/08/15 03:08:04;;;;;;;13.85;11.40;;;16.40;99.90;;;;;;5073900;28;20028;-79
2023/08/15 03:10:32;;;;;;;12.70;11.05;;;16.40;99.90;;;;;;5073451;28;20016;-80
2023/08/15 03:12:58;;;;;;;15.90;11.10;;;16.40;99.90;;;;;;5072380;28;20021;-80
2023/08/15 03:15:24;;;;;;;14.60;10.88;;;16.40;99.90;;;;;;5071727;28;20036;-78
2023/08/15 03:17:51;;;;;;;14.35;11.18;;;16.30;99.90;;;;;;5073409;28;20398;-79
2023/08/15 03:20:16;;;;;;;14.10;10.15;;;16.30;99.90;;;;;;5072216;28;20017;-80
2023/08/15 03:22:45;;;;;;;16.67;11.07;;;16.30;99.90;;;;;;5072356;28;20115;-79
2023/08/15 03:25:11;;;;;;;13.02;11.25;;;16.30;99.90;;;;;;5072230;28;20024;-78
2023/08/15 03:27:36;;;;;;;11.40;9.60;;;16.30;99.90;;;;;;5073327;28;20389;-78
2023/08/15 03:30:02;;;;;;;25.30;12.07;;;16.30;99.90;;;;;;5073244;28;20024;-80
2023/08/15 03:32:28;;;;;;;14.70;11.15;;;16.20;99.90;;;;;;5073357;28;20154;-79
2023/08/15 03:34:53;;;;;;;11.65;10.07;;;16.20;99.90;;;;;;5074560;28;20032;-80
2023/08/15 03:37:19;;;;;;;14.82;10.77;;;16.20;99.90;;;;;;5055394;28;20036;-80
2023/08/15 03:39:45;;;;;;;15.15;10.63;;;16.20;99.90;;;;;;5073160;28;20107;-80
2023/08/15 03:42:10;;;;;;;12.63;10.30;;;16.20;99.90;;;;;;5073244;28;20017;-79
2023/08/15 03:44:36;;;;;;;10.55;9.43;;;16.20;99.90;;;;;;5071575;28;20485;-80
2023/08/15 03:47:01;;;;;;;11.70;9.98;;;16.20;99.90;;;;;;5080081;28;20032;-80
2023/08/15 03:49:27;;;;;;;13.32;10.55;;;16.20;99.90;;;;;;5071479;28;20017;-80
2023/08/15 03:51:53;;;;;;;13.35;10.88;;;16.20;99.90;;;;;;5073038;28;20362;-79
2023/08/15 03:54:18;;;;;;;13.68;10.20;;;16.20;99.90;;;;;;5079304;28;20070;-78
2023/08/15 03:56:44;;;;;;;14.52;11.10;;;16.20;99.90;;;;;;5072994;28;20075;-80
2023/08/15 03:59:09;;;;;;;13.43;10.40;;;16.20;99.90;;;;;;5071524;28;20020;-80
2023/08/15 04:01:35;;;;;;;14.57;9.75;;;16.20;99.90;;;;;;5072899;28;20025;-81
2023/08/15 04:04:01;;;;;;;10.98;8.52;;;16.20;99.90;;;;;;5071507;28;20020;-78
2023/08/15 04:06:26;;;;;;;9.43;8.45;;;16.20;99.90;;;;;;5071743;28;20112;-78
2023/08/15 04:08:52;;;;;;;9.73;8.77;;;16.20;99.90;;;;;;5072683;28;20060;-80
2023/08/15 04:11:19;;;;;;;9.35;8.10;;;16.30;99.90;;;;;;5082207;28;20390;-78
2023/08/15 04:13:44;;;;;;;10.05;8.35;;;16.40;99.90;;;;;;5073947;28;20017;-80
2023/08/15 04:16:10;;;;;;;10.07;7.00;;;16.50;99.90;;;;;;5072976;28;20058;-78
2023/08/15 04:18:36;;;;;;;12.45;9.15;;;16.60;99.90;;;;;;5072394;28;20382;-80
2023/08/15 04:21:01;;;;;;;8.60;7.80;;;16.70;99.90;;;;;;5072736;28;20105;-78
2023/08/15 04:23:27;;;;;;;11.27;8.75;;;16.80;99.90;;;;;;5072497;28;20021;-78
2023/08/15 04:25:53;;;;;;;12.18;10.90;;;16.90;99.90;;;;;;5080027;28;20032;-79
2023/08/15 04:28:18;;;;;;;17.77;12.57;;;17.10;99.90;;;;;;5072243;28;20027;-78
2023/08/15 04:30:44;;;;;;;13.82;11.50;;;17.30;99.90;;;;;;5072615;28;20477;-81
2023/08/15 04:33:10;;;;;;;15.05;11.45;;;17.40;99.90;;;;;;5072144;28;20040;-81
2023/08/15 04:35:36;;;;;;;18.15;11.82;;;17.60;99.90;;;;;;5073989;28;20029;-78
2023/08/15 04:38:02;;;;;;;14.23;11.07;;;17.60;99.90;;;;;;5070881;28;20021;-78
2023/08/15 04:40:39;;;;;;;14.48;11.13;;;17.70;99.90;;;;;;5072738;28;20104;-78
2023/08/15 04:43:05;;;;;;;13.88;11.27;;;17.80;99.90;;;;;;5072631;28;20024;-78
2023/08/15 04:45:31;;;;;;;14.88;10.77;;;17.90;99.90;;;;;;5072431;28;20496;-80
2023/08/15 04:47:57;;;;;;;13.30;10.48;;;18.00;99.90;;;;;;5071018;28;20056;-78
2023/08/15 04:50:22;;;;;;;11.70;9.93;;;18.10;99.90;;;;;;5083560;28;20025;-81
2023/08/15 04:52:48;;;;;;;10.27;8.45;;;18.20;99.90;;;;;;5072188;28;20113;-81
2023/08/15 04:55:14;;;;;;;12.13;8.13;;;18.30;99.90;;;;;;5074266;28;20437;-81
2023/08/15 04:57:40;;;;;;;11.07;7.03;;;18.40;99.90;;;;;;5059307;28;20025;-81
2023/08/15 05:00:15;;;;;;;10.43;9.32;;;18.50;99.90;;;;;;5073395;28;20020;-78
2023/08/15 05:02:41;;;;;;;9.40;8.40;;;18.50;99.90;;;;;;5075021;28;20028;-78
2023/08/15 05:05:10;;;;;;;15.40;9.10;;;18.60;99.90;;;;;;5082378;28;20118;-78
2023/08/15 05:07:37;;;;;;;13.30;9.43;;;18.70;99.90;;;;;;5079721;28;20016;-78
2023/08/15 05:10:03;;;;;;;11.73;9.30;;;18.80;99.90;;;;;;5079489;28;20020;-78
2023/08/15 05:12:29;;;;;;;11.60;8.80;;;19.00;99.90;;;;;;5074845;28;20497;-78
2023/08/15 05:14:54;;;;;;;12.20;9.23;;;19.00;99.90;;;;;;5075541;28;20123;-78
2023/08/15 05:17:20;;;;;;;11.85;8.68;;;19.20;99.90;;;;;;5078142;28;20390;-78
2023/08/15 05:19:45;;;;;;;10.52;8.52;;;19.30;99.90;;;;;;5075821;28;20025;-78
2023/08/15 05:22:11;;;;;;;14.20;9.98;;;19.40;99.90;;;;;;5076246;28;20020;-78
2023/08/15 05:24:37;;;;;;;11.45;9.45;;;19.50;99.90;;;;;;5080193;28;20112;-80
2023/08/15 05:27:02;;;;;;;10.88;9.57;;;19.70;99.90;;;;;;5074632;28;20396;-80
2023/08/15 05:29:28;;;;;;;14.35;10.35;;;19.80;99.90;;;;;;5075654;28;20024;-81
2023/08/15 05:31:54;;;;;;;12.93;10.55;;;19.90;99.90;;;;;;5074603;28;20029;-78
2023/08/15 05:34:20;;;;;;;12.57;10.80;;;20.10;99.90;;;;;;5076773;28;20012;-80
2023/08/15 05:36:45;;;;;;;13.15;10.15;;;20.20;99.90;;;;;;5074507;28;20021;-80
2023/08/15 05:39:11;;;;;;;15.32;10.93;;;20.40;99.90;;;;;;5074141;28;20013;-81
2023/08/15 05:41:37;;;;;;;12.65;10.02;;;20.60;99.90;;;;;;5080979;28;20020;-79
2023/08/15 05:44:02;;;;;;;11.27;9.90;;;20.70;99.90;;;;;;5075428;28;20104;-78
2023/08/15 05:46:28;;;;;;;13.15;10.45;;;20.90;99.90;;;;;;5075618;28;20538;-79
2023/08/15 05:48:54;;;;;;;12.98;11.57;;;21.10;99.90;;;;;;5075200;28;20017;-81
2023/08/15 05:51:19;;;;;;;14.40;11.60;;;21.30;99.90;;;;;;5084990;28;20055;-79
2023/08/15 05:53:45;;;;;;;17.05;12.50;;;21.50;99.90;;;;;;5075371;28;20016;-81
2023/08/15 05:56:10;;;;;;;15.57;12.23;;;21.70;99.90;;;;;;5072892;28;20115;-79
2023/08/15 05:58:36;;;;;;;13.23;11.73;;;21.90;99.90;;;;;;5074915;28;20021;-78
2023/08/15 06:01:02;;;;;;;12.85;10.50;;;22.10;99.90;;;;;;5075248;28;20024;-81
2023/08/15 06:03:28;;;;;;;12.77;9.60;;;22.30;99.90;;;;;;5073708;28;20094;-79
2023/08/15 06:05:55;;;;;;;19.13;9.25;;;22.50;99.90;;;;;;5073977;28;20481;-81
2023/08/15 06:08:21;;;;;;;11.38;8.65;;;22.70;99.90;;;;;;5073488;28;20050;-80
2023/08/15 06:10:47;;;;;;;10.88;8.23;;;22.90;98.10;;;;;;5074933;28;20493;-81
2023/08/15 06:13:13;;;;;;;11.68;8.25;;;23.20;96.40;;;;;;5073836;28;20052;-81
2023/08/15 06:15:38;;;;;;;9.75;8.85;;;23.40;94.60;;;;;;5065632;28;20051;-81
2023/08/15 06:18:04;;;;;;;11.48;9.38;;;23.60;90.90;;;;;;5071368;28;20035;-81
2023/08/15 06:20:31;;;;;;;13.10;8.73;;;23.70;93.40;;;;;;5075005;28;20086;-79
2023/08/15 06:22:56;;;;;;;15.57;8.52;;;23.90;91.90;;;;;;5079358;28;20382;-79
2023/08/15 06:25:22;;;;;;;11.55;8.50;;;24.00;89.70;;;;;;5074766;28;20027;-79
2023/08/15 06:27:47;;;;;;;9.45;8.45;;;24.20;88.10;;;;;;5072935;28;20474;-79
2023/08/15 06:30:13;;;;;;;9.32;7.70;;;24.40;84.50;;;;;;5073332;28;20087;-78
2023/08/15 06:32:39;;;;;;;11.95;8.13;;;24.50;82.50;;;;;;5074118;28;20029;-82
2023/08/15 06:35:05;;;;;;;10.27;7.68;;;24.70;82.40;;;;;;5074314;28;20103;-79
2023/08/15 06:37:31;;;;;;;8.35;6.90;;;24.80;79.60;;;;;;5074532;28;20023;-79
2023/08/15 06:39:57;;;;;;;9.27;8.30;;;24.90;79.70;;;;;;5074387;28;20021;-81
2023/08/15 06:42:23;;;;;;;8.30;7.20;;;25.00;78.10;;;;;;5078092;28;20539;-82
2023/08/15 06:44:48;;;;;;;9.57;7.75;;;25.10;77.70;;;;;;5074345;28;20066;-82
2023/08/15 06:47:14;;;;;;;12.25;8.57;;;25.30;74.90;;;;;;5072928;28;20025;-82
2023/08/15 06:49:40;;;;;;;8.10;7.35;;;25.40;74.50;;;;;;5074623;28;20021;-82
2023/08/15 06:52:07;;;;;;;7.65;6.85;;;25.60;74.40;;;;;;5072583;28;20101;-83
2023/08/15 06:54:33;;;;;;;7.93;6.72;;;25.70;75.10;;;;;;5072861;28;20111;-79
2023/08/15 06:56:58;;;;;;;9.98;7.05;;;25.80;72.00;;;;;;5072615;28;20024;-82
2023/08/15 06:59:24;;;;;;;8.27;6.82;;;25.90;71.70;;;;;;5075531;28;20394;-79
2023/08/15 07:01:52;;;;;;;7.90;7.13;;;26.10;71.50;;;;;;5072059;28;20112;-82
2023/08/15 07:04:18;;;;;;;7.45;6.75;;;26.20;72.40;;;;;;5071570;28;20024;-82
2023/08/15 07:06:44;;;;;;;8.45;6.47;;;26.30;72.70;;;;;;5073476;28;20435;-81
2023/08/15 07:09:11;;;;;;;6.85;6.15;;;26.40;69.20;;;;;;5072261;28;20024;-82
2023/08/15 07:15:06;;;;;;;8.85;5.75;;;26.60;67.30;;;;;;5054117;28;20060;-82
2023/08/15 07:17:31;;;;;;;5.80;5.20;;;26.60;65.30;;;;;;5072175;28;20036;-82
2023/08/15 07:19:57;;;;;;;6.40;5.80;;;26.70;64.30;;;;;;5073359;28;20051;-82
2023/08/15 07:22:23;;;;;;;6.72;6.05;;;26.80;64.10;;;;;;5071040;28;20020;-82
2023/08/15 07:24:49;;;;;;;7.47;6.22;;;26.90;63.90;;;;;;5071421;28;20367;-82
2023/08/15 07:27:14;;;;;;;8.68;7.43;;;27.00;64.70;;;;;;5071896;28;20111;-82
2023/08/15 07:29:40;;;;;;;7.30;6.32;;;27.10;64.60;;;;;;5073005;28;20093;-79
2023/08/15 07:32:08;;;;;;;12.27;6.22;;;27.30;66.20;;;;;;5071887;28;20028;-79
2023/08/15 07:34:34;;;;;;;7.88;6.57;;;27.50;64.90;;;;;;5070882;28;20359;-79
2023/08/15 07:36:59;;;;;;;6.63;6.13;;;27.60;64.80;;;;;;5072907;28;20095;-82
2023/08/15 07:39:25;;;;;;;7.15;5.88;;;27.70;63.00;;;;;;5071389;28;20086;-82
2023/08/15 07:41:50;;;;;;;9.02;6.15;;;27.80;62.10;;;;;;5073372;28;20024;-79
2023/08/15 07:44:16;;;;;;;7.20;6.50;;;27.80;62.10;;;;;;5071607;28;20478;-79
2023/08/15 07:46:42;;;;;;;6.65;5.95;;;27.80;61.20;;;;;;5072780;28;20032;-79
2023/08/15 07:49:07;;;;;;;7.65;6.88;;;28.00;62.50;;;;;;5072394;28;20438;-79
2023/08/15 07:51:33;;;;;;;8.40;6.10;;;28.00;61.60;;;;;;5072985;28;20043;-79
2023/08/15 07:53:59;;;;;;;6.35;5.78;;;28.20;62.30;;;;;;5071388;28;20470;-81
2023/08/15 07:56:24;;;;;;;6.45;5.85;;;28.30;60.60;;;;;;5071885;28;20025;-80
2023/08/15 07:58:50;;;;;;;6.63;5.68;;;28.30;61.40;;;;;;5072802;28;20021;-79
2023/08/15 08:01:15;;;;;;;9.23;5.80;;;28.50;61.10;;;;;;5072734;28;20013;-78
2023/08/15 08:03:42;;;;;;;6.82;5.43;;;28.40;57.50;;;;;;5072975;28;20020;-81
2023/08/15 08:06:09;;;;;;;7.18;5.72;;;28.50;58.00;;;;;;5071184;28;20020;-81
2023/08/15 08:08:34;;;;;;;5.75;5.25;;;28.70;58.60;;;;;;5071742;28;20013;-80
2023/08/15 08:11:00;;;;;;;8.93;5.05;;;28.70;58.00;;;;;;5071881;28;20123;-81
2023/08/15 08:13:26;;;;;;;6.20;5.65;;;28.70;57.10;;;;;;5071107;28;20063;-81
2023/08/15 08:15:51;;;;;;;6.85;5.90;;;28.90;57.40;;;;;;5071103;28;20486;-81
2023/08/15 08:18:17;;;;;;;5.97;5.30;;;29.00;58.90;;;;;;5072474;28;20016;-81
2023/08/15 08:20:42;;;;;;;7.15;5.28;;;29.10;58.60;;;;;;5070268;28;20040;-81
2023/08/15 08:23:08;;;;;;;5.07;4.68;;;29.20;58.30;;;;;;5070439;28;20091;-81
2023/08/15 08:25:34;;;;;;;4.85;4.45;;;29.30;58.60;;;;;;5072101;28;20020;-82
2023/08/15 08:28:00;;;;;;;5.60;4.90;;;29.20;54.30;;;;;;5071877;28;20017;-81
2023/08/15 08:30:26;;;;;;;6.97;4.40;;;29.30;55.00;;;;;;5069616;28;20028;-81
2023/08/15 08:32:51;;;;;;;5.07;3.80;;;29.30;54.60;;;;;;5069005;28;20036;-81
2023/08/15 08:35:17;;;;;;;4.97;4.00;;;29.40;53.90;;;;;;5070529;28;20382;-77
2023/08/15 08:37:44;;;;;;;4.22;3.83;;;29.50;54.10;;;;;;5072431;28;20024;-80
2023/08/15 08:40:12;;;;;;;4.28;3.90;;;29.40;52.70;;;;;;5073316;28;20016;-80
2023/08/15 08:42:41;;;;;;;4.32;3.90;;;29.40;53.40;;;;;;5072753;28;20032;-77
2023/08/15 08:45:09;;;;;;;4.20;3.58;;;29.60;52.60;;;;;;5054503;28;20075;-80
2023/08/15 08:47:38;;;;;;;4.97;3.53;;;29.60;52.90;;;;;;5071148;28;20015;-78
2023/08/15 08:50:08;;;;;;;5.90;3.75;;;29.50;50.80;;;;;;5072235;28;20028;-80
2023/08/15 08:52:35;;;;;;;4.22;3.92;;;29.40;50.00;;;;;;5070714;28;20367;-79
2023/08/15 08:55:01;;;;;;;3.80;3.50;;;29.50;51.70;;;;;;5072566;28;20021;-80
2023/08/15 08:57:29;;;;;;;3.70;3.30;;;29.60;52.20;;;;;;5069496;28;20029;-79
2023/08/15 08:59:58;;;;;;;4.63;4.20;;;29.60;51.00;;;;;;5071529;28;20082;-79
2023/08/15 09:02:24;;;;;;;3.70;3.40;;;29.70;50.70;;;;;;5071970;28;20133;-79
2023/08/15 09:04:50;;;;;;;5.18;3.83;;;29.80;51.00;;;;;;5072156;28;20082;-79
2023/08/15 09:07:16;;;;;;;5.63;4.20;;;29.90;51.30;;;;;;5070639;28;20025;-78
2023/08/15 09:09:41;;;;;;;6.13;4.20;;;30.10;52.40;;;;;;5071685;28;20485;-80
2023/08/15 09:12:07;;;;;;;5.45;3.60;;;30.20;51.30;;;;;;5071795;28;20038;-79
2023/08/15 09:14:40;;;;;;;4.95;3.70;;;30.30;50.70;;;;;;5070533;28;20017;-79
2023/08/15 09:17:06;;;;;;;4.82;4.07;;;30.30;50.60;;;;;;5069807;28;20083;-79
2023/08/15 09:19:39;;;;;;;5.03;3.65;;;30.30;50.40;;;;;;5071246;28;20056;-79
2023/08/15 09:22:05;;;;;;;5.43;3.63;;;30.20;48.90;;;;;;5067846;28;20081;-79
2023/08/15 09:24:30;;;;;;;5.13;3.90;;;30.30;48.80;;;;;;5062725;28;20020;-79
2023/08/15 09:26:56;;;;;;;3.85;3.63;;;30.40;49.40;;;;;;5071425;28;20401;-79
2023/08/15 09:29:22;;;;;;;4.05;3.30;;;30.40;49.00;;;;;;5070352;28;20016;-79
2023/08/15 09:31:49;;;;;;;6.28;4.20;;;30.60;48.70;;;;;;5070504;28;20123;-79
2023/08/15 09:34:15;;;;;;;4.30;3.90;;;30.70;49.80;;;;;;5069355;28;20042;-79
2023/08/15 09:36:41;;;;;;;6.95;4.35;;;30.80;47.30;;;;;;5071575;28;20111;-77
2023/08/15 09:39:08;;;;;;;4.28;3.83;;;30.70;47.20;;;;;;5070871;28;20039;-79
2023/08/15 09:41:39;;;;;;;4.15;3.42;;;30.70;47.40;;;;;;5071086;28;20032;-79
2023/08/15 09:44:05;;;;;;;4.95;3.25;;;30.70;47.90;;;;;;5082877;28;20126;-79
2023/08/15 09:46:32;;;;;;;3.60;3.30;;;30.70;46.20;;;;;;5079461;28;20035;-79
2023/08/15 09:48:58;;;;;;;5.40;3.22;;;30.70;46.00;;;;;;5083397;28;20017;-81
2023/08/15 09:51:25;;;;;;;5.80;3.53;;;30.90;47.10;;;;;;5093240;28;20613;-80
2023/08/15 09:53:52;;;;;;;3.55;3.25;;;31.00;47.10;;;;;;5083365;28;20024;-80
2023/08/15 09:56:20;;;;;;;3.92;3.50;;;31.10;47.50;;;;;;5093135;28;20016;-80
2023/08/15 09:58:45;;;;;;;5.47;3.47;;;31.10;46.20;;;;;;5090769;28;20024;-80
2023/08/15 10:01:16;;;;;;;3.63;3.35;;;31.10;45.90;;;;;;5092645;28;20023;-80
2023/08/15 10:03:43;;;;;;;3.40;3.10;;;31.10;45.90;;;;;;5093656;28;20024;-80
2023/08/15 10:06:10;;;;;;;3.88;3.60;;;31.00;44.30;;;;;;5093365;28;20047;-80
2023/08/15 10:08:40;;;;;;;5.43;3.22;;;31.00;46.00;;;;;;5077677;28;20020;-80
2023/08/15 10:11:10;;;;;;;4.60;3.78;;;30.90;44.40;;;;;;5075146;28;20547;-80
2023/08/15 10:13:39;;;;;;;3.28;3.08;;;30.90;44.40;;;;;;5075309;28;20072;-80
2023/08/15 10:16:08;;;;;;;3.80;3.40;;;31.00;45.30;;;;;;5075995;28;20056;-80
2023/08/15 10:18:35;;;;;;;4.22;3.88;;;30.80;43.30;;;;;;5092937;28;20047;-80
2023/08/15 10:21:01;;;;;;;4.70;3.35;;;30.80;44.90;;;;;;5092952;28;20116;-80
2023/08/15 10:23:33;;;;;;;3.58;3.28;;;30.80;44.40;;;;;;5086413;28;20545;-80
2023/08/15 10:25:59;;;;;;;4.43;3.90;;;31.00;45.30;;;;;;5083554;28;20063;-79
2023/08/15 10:28:29;;;;;;;3.97;3.50;;;31.20;46.00;;;;;;5084636;28;20024;-78
2023/08/15 10:30:56;;;;;;;5.25;4.30;;;31.30;47.20;;;;;;5086690;28;20070;-79
2023/08/15 10:33:23;;;;;;;6.90;3.50;;;31.40;45.60;;;;;;5090091;28;20024;-81
2023/08/15 10:36:05;;;;;;;3.40;3.20;;;31.50;45.60;;;;;;5079965;28;20482;-80
2023/08/15 10:38:37;;;;;;;4.20;3.88;;;31.60;46.20;;;;;;5086822;28;20697;-80
2023/08/15 10:41:11;;;;;;;4.45;4.05;;;31.60;46.20;;;;;;5091093;28;20198;-80
2023/08/15 10:43:37;;;;;;;3.95;3.53;;;31.70;45.70;;;;;;5077849;28;20035;-80
2023/08/15 10:46:04;;;;;;;4.55;3.95;;;31.70;45.90;;;;;;5081385;28;20177;-79
2023/08/15 10:48:43;;;;;;;4.15;3.47;;;31.50;43.40;;;;;;5084583;28;20023;-80
2023/08/15 10:51:36;;;;;;;7.53;4.10;;;31.50;44.20;;;;;;5079284;28;20029;-80
2023/08/15 10:54:08;;;;;;;4.70;4.25;;;31.40;44.40;;;;;;5073507;28;20033;-80
2023/08/15 10:56:35;;;;;;;;;;;31.40;45.10;;;;;;5082911;28;20481;-81
2023/08/15 10:59:09;;;;;;;4.78;4.38;;;31.40;45.10;;;;;;5089068;28;19908;-80
2023/08/15 11:01:39;;;;;;;5.30;4.15;;;31.40;46.00;;;;;;5078643;28;20020;-81
2023/08/15 11:04:08;;;;;;;4.13;3.50;;;31.40;45.70;;;;;;5079410;28;20020;-81
2023/08/15 11:06:46;;;;;;;4.60;3.63;;;31.40;45.10;;;;;;5072226;28;20023;-80
2023/08/15 11:09:12;;;;;;;5.82;4.25;;;31.50;46.60;;;;;;5068307;28;20363;-79
2023/08/15 11:11:38;;;;;;;4.20;3.72;;;31.60;46.70;;;;;;5078932;28;20028;-80
2023/08/15 11:14:13;;;;;;;6.68;3.85;;;31.50;44.00;;;;;;5077286;28;20482;-80
2023/08/15 11:16:39;;;;;;;6.03;3.85;;;31.70;43.90;;;;;;5089779;28;20055;-80
2023/08/15 11:19:04;;;;;;;5.07;4.07;;;31.70;44.80;;;;;;5090451;28;20024;-81
2023/08/15 11:21:30;;;;;;;4.60;4.10;;;31.60;45.40;;;;;;5079282;28;20393;-79
2023/08/15 11:23:58;;;;;;;3.83;3.53;;;31.60;44.40;;;;;;5089857;28;20389;-77
2023/08/15 11:26:25;;;;;;;4.63;4.15;;;31.60;43.10;;;;;;5092665;28;20024;-80
2023/08/15 11:28:51;;;;;;;4.15;3.60;;;31.60;44.40;;;;;;5090113;28;20046;-79
2023/08/15 11:31:17;;;;;;;4.47;3.75;;;31.50;44.30;;;;;;5091340;28;20481;-77
2023/08/15 11:33:43;;;;;;;4.35;3.40;;;31.50;44.20;;;;;;5081562;28;20451;-76
2023/08/15 11:36:12;;;;;;;4.10;3.35;;;31.50;43.80;;;;;;5075848;28;20020;-76
2023/08/15 11:38:39;;;;;;;4.18;3.40;;;31.60;43.80;;;;;;5083101;28;20424;-77
2023/08/15 11:41:05;;;;;;;4.15;3.80;;;31.60;43.60;;;;;;5087401;28;20077;-77
2023/08/15 11:43:34;;;;;;;4.35;3.88;;;31.70;42.90;;;;;;5079249;28;20029;-79
2023/08/15 11:46:04;;;;;;;5.40;3.42;;;31.70;44.20;;;;;;5076177;28;20031;-78
2023/08/15 11:48:31;;;;;;;6.32;4.85;;;31.70;45.90;;;;;;5073398;28;20112;-78
2023/08/15 11:50:57;;;;;;;4.57;3.85;;;31.70;44.10;;;;;;5073965;28;20027;-78
2023/08/15 11:53:23;;;;;;;3.80;3.42;;;31.70;45.10;;;;;;5077328;28;20035;-78
2023/08/15 11:55:48;;;;;;;4.80;3.72;;;31.80;45.40;;;;;;5075570;28;20091;-78
2023/08/15 11:58:40;;;;;;;4.10;3.55;;;31.80;44.30;;;;;;5071584;28;20023;-78
2023/08/15 12:01:07;;;;;;;;;;;31.90;43.60;;;;;;5078129;28;20044;-78
2023/08/15 12:03:34;;;;;;;4.10;3.63;;;32.10;43.90;;;;;;5073947;28;19916;-77
2023/08/15 12:06:02;;;;;;;3.55;3.25;;;32.10;43.40;;;;;;5082252;28;20542;-77
2023/08/15 12:08:29;;;;;;;3.55;3.25;;;32.30;43.30;;;;;;5087349;28;20030;-78
2023/08/15 12:10:57;;;;;;;5.70;4.50;;;32.20;43.40;;;;;;5079715;28;20032;-78
2023/08/15 12:13:30;;;;;;;4.07;3.40;;;32.20;42.50;;;;;;5075189;28;20036;-78
2023/08/15 12:15:55;;;;;;;5.70;3.65;;;32.10;42.50;;;;;;5074626;28;20382;-79
2023/08/15 12:18:21;;;;;;;5.00;3.15;;;32.00;43.60;;;;;;5073090;28;20179;-79
2023/08/15 12:20:47;;;;;;;4.57;3.38;;;32.00;43.40;;;;;;5073117;28;20049;-78
2023/08/15 12:23:12;;;;;;;4.47;3.30;;;32.00;44.10;;;;;;5073335;28;20016;-78
2023/08/15 12:25:38;;;;;;;4.35;3.38;;;31.90;42.50;;;;;;5074102;28;20099;-78
2023/08/15 12:28:04;;;;;;;4.20;3.85;;;31.80;41.30;;;;;;5077086;28;20486;-78
2023/08/15 12:30:30;;;;;;;3.45;3.15;;;31.90;42.80;;;;;;5072216;28;20526;-78
2023/08/15 12:32:56;;;;;;;3.78;3.13;;;32.00;42.20;;;;;;5073706;28;20119;-78
2023/08/15 12:35:21;;;;;;;4.78;3.95;;;32.10;42.90;;;;;;5070413;28;20032;-78
2023/08/15 12:37:47;;;;;;;5.82;4.38;;;32.10;42.50;;;;;;5074405;28;20081;-77
2023/08/15 12:40:12;;;;;;;3.42;3.13;;;32.20;43.50;;;;;;5072466;28;20070;-78